createdAt,value
2022-08-05T00:00:22.263Z,81.40
2022-08-05T00:02:52.501Z,81.50
2022-08-05T00:06:06.702Z,81.80
2022-08-05T00:08:34.974Z,81.80
2022-08-05T00:11:20.347Z,82.00
2022-08-05T00:13:56.191Z,82.20
2022-08-05T00:16:36.121Z,82.40
2022-08-05T00:19:12.481Z,82.50
2022-08-05T00:21:42.548Z,82.60
2022-08-05T00:24:18.871Z,82.70
2022-08-05T00:26:51.918Z,82.80
2022-08-05T00:29:27.599Z,83.90
2022-08-05T00:32:15.408Z,83.20
2022-08-05T00:35:05.124Z,83.40
2022-08-05T00:37:52.675Z,83.60
2022-08-05T00:40:29.041Z,83.60
2022-08-05T00:43:00.294Z,83.70
2022-08-05T00:45:42.877Z,83.60
2022-08-05T00:48:27.590Z,83.70
2022-08-05T00:51:08.792Z,84.10
2022-08-05T00:54:02.791Z,84.20
2022-08-05T00:56:40.704Z,84.20
2022-08-05T00:59:44.447Z,84.20
2022-08-05T01:02:17.024Z,84.40
2022-08-05T01:04:51.359Z,84.60
2022-08-05T01:07:31.895Z,84.80
2022-08-05T01:10:01.454Z,85.00
2022-08-05T01:12:38.812Z,85.10
2022-08-05T01:15:36.105Z,85.30
2022-08-05T01:18:19.911Z,85.40
2022-08-05T01:21:22.851Z,85.60
2022-08-05T01:24:30.229Z,86.10
2022-08-05T01:27:19.188Z,86.30
2022-08-05T01:29:58.742Z,86.20
2022-08-05T01:32:35.326Z,86.30
2022-08-05T01:35:11.654Z,86.40
2022-08-05T01:38:24.694Z,86.50
2022-08-05T01:41:02.772Z,86.30
2022-08-05T01:43:35.325Z,86.60
2022-08-05T01:46:16.356Z,86.90
2022-08-05T01:49:22.681Z,86.90
2022-08-05T01:51:58.859Z,87.00
2022-08-05T01:54:55.418Z,87.00
2022-08-05T01:58:09.942Z,87.00
2022-08-05T02:00:29.904Z,87.10
2022-08-05T02:03:24.025Z,87.40
2022-08-05T02:06:24.037Z,87.40
2022-08-05T02:09:03.373Z,87.70
2022-08-05T02:11:48.120Z,87.60
2022-08-05T02:14:32.013Z,87.70
2022-08-05T02:18:27.625Z,87.90
2022-08-05T02:20:28.194Z,88.10
2022-08-05T02:23:05.947Z,88.00
2022-08-05T02:25:49.743Z,88.00
2022-08-05T02:28:28.833Z,88.30
2022-08-05T02:31:14.469Z,88.40
2022-08-05T02:33:57.165Z,88.60
2022-08-05T02:36:35.238Z,88.60
2022-08-05T02:39:08.838Z,88.80
2022-08-05T02:42:00.419Z,89.10
2022-08-05T02:44:37.062Z,89.30
2022-08-05T02:47:18.336Z,89.50
2022-08-05T02:49:52.785Z,89.60
2022-08-05T02:52:34.276Z,89.70
2022-08-05T02:55:13.006Z,89.80
2022-08-05T02:58:11.015Z,89.70
2022-08-05T03:00:42.252Z,89.60
2022-08-05T03:03:20.816Z,89.80
2022-08-05T03:06:54.361Z,89.80
2022-08-05T03:09:07.840Z,90.00
2022-08-05T03:11:55.184Z,90.00
2022-08-05T03:14:32.834Z,90.10
2022-08-05T03:17:06.138Z,90.20
2022-08-05T03:19:38.059Z,90.20
2022-08-05T03:22:19.060Z,90.20
2022-08-05T03:25:31.630Z,90.30
2022-08-05T03:28:00.200Z,90.30
2022-08-05T03:30:33.840Z,90.30
2022-08-05T03:33:04.188Z,90.40
2022-08-05T03:35:41.181Z,90.40
2022-08-05T03:38:14.338Z,90.60
2022-08-05T03:40:45.316Z,90.50
2022-08-05T03:44:08.123Z,90.60
2022-08-05T03:46:08.076Z,90.70
2022-08-05T03:48:36.799Z,90.70
2022-08-05T03:52:48.778Z,90.70
2022-08-05T03:55:53.093Z,90.70
2022-08-05T03:57:00.055Z,90.70
2022-08-05T03:59:46.500Z,90.70
2022-08-05T04:02:37.604Z,90.70
2022-08-05T04:05:09.837Z,90.70
2022-08-05T04:07:58.129Z,90.90
2022-08-05T04:10:32.103Z,90.60
2022-08-05T04:13:07.691Z,90.50
2022-08-05T04:15:36.695Z,90.40
2022-08-05T04:18:07.299Z,90.20
2022-08-05T04:20:38.402Z,90.20
2022-08-05T04:23:12.378Z,90.10
2022-08-05T04:26:00.526Z,90.10
2022-08-05T04:28:31.840Z,90.20
2022-08-05T04:31:01.075Z,90.30
2022-08-05T04:33:54.438Z,90.30
2022-08-05T04:36:46.488Z,90.20
2022-08-05T04:39:06.102Z,90.30
2022-08-05T04:41:37.901Z,90.30
2022-08-05T04:44:09.477Z,90.30
2022-08-05T04:46:38.773Z,90.40
2022-08-05T04:49:12.151Z,90.40
2022-08-05T04:51:43.959Z,90.40
2022-08-05T04:54:12.433Z,90.30
2022-08-05T04:56:40.706Z,90.30
2022-08-05T04:59:22.461Z,90.30
2022-08-05T05:02:08.031Z,90.30
2022-08-05T05:04:49.914Z,90.30
2022-08-05T05:07:29.236Z,90.20
2022-08-05T05:09:57.831Z,90.30
2022-08-05T05:12:27.324Z,90.30
2022-08-05T05:14:57.558Z,90.30
2022-08-05T05:17:55.546Z,90.20
2022-08-05T05:20:15.086Z,90.00
2022-08-05T05:22:44.138Z,89.80
2022-08-05T05:25:17.087Z,89.20
2022-08-05T05:27:53.543Z,88.20
2022-08-05T05:30:29.485Z,87.80
2022-08-05T05:33:03.726Z,87.00
2022-08-05T05:35:47.681Z,86.80
2022-08-05T05:38:22.666Z,86.40
2022-08-05T05:40:56.155Z,85.70
2022-08-05T05:43:56.325Z,85.30
2022-08-05T05:46:16.021Z,85.40
2022-08-05T05:48:48.392Z,84.90
2022-08-05T05:51:20.768Z,85.10
2022-08-05T05:53:58.324Z,85.00
2022-08-05T05:56:33.047Z,84.70
2022-08-05T05:59:05.326Z,84.40
2022-08-05T06:01:38.947Z,84.40
2022-08-05T06:04:11.716Z,84.40
2022-08-05T06:06:41.658Z,84.30
2022-08-05T06:09:16.990Z,84.50
2022-08-05T06:11:59.903Z,84.70
2022-08-05T06:14:31.109Z,84.80
2022-08-05T06:17:22.475Z,84.80
2022-08-05T06:19:56.533Z,84.60
2022-08-05T06:22:29.590Z,84.40
2022-08-05T06:24:58.343Z,84.90
2022-08-05T06:28:11.107Z,84.40
2022-08-05T06:30:20.909Z,84.30
2022-08-05T06:32:50.946Z,84.50
2022-08-05T06:36:04.052Z,84.50
2022-08-05T06:38:11.759Z,84.10
2022-08-05T06:40:42.174Z,84.60
2022-08-05T06:43:58.762Z,84.90
2022-08-05T06:46:06.909Z,84.90
2022-08-05T06:48:56.763Z,84.50
2022-08-05T06:51:29.794Z,84.70
2022-08-05T06:53:58.941Z,84.60
2022-08-05T06:56:27.205Z,84.40
2022-08-05T06:58:55.298Z,84.30
2022-08-05T07:01:23.535Z,84.30
2022-08-05T07:03:57.041Z,83.90
2022-08-05T07:06:27.743Z,83.40
2022-08-05T07:08:56.503Z,83.10
2022-08-05T07:11:28.604Z,83.40
2022-08-05T07:14:20.569Z,83.60
2022-08-05T07:18:00.088Z,84.10
2022-08-05T07:20:32.576Z,82.90
2022-08-05T07:22:38.391Z,82.30
2022-08-05T07:25:21.935Z,82.60
2022-08-05T07:27:58.585Z,82.50
2022-08-05T07:30:32.494Z,82.70
2022-08-05T07:33:01.466Z,82.40
2022-08-05T07:36:04.201Z,82.40
2022-08-05T07:38:32.412Z,82.30
2022-08-05T07:41:16.690Z,82.50
2022-08-05T07:43:51.527Z,82.30
2022-08-05T07:46:24.475Z,81.90
2022-08-05T07:49:02.385Z,81.80
2022-08-05T07:51:40.594Z,81.90
2022-08-05T07:54:16.769Z,81.90
2022-08-05T07:57:01.507Z,82.10
2022-08-05T07:59:40.151Z,82.40
2022-08-05T08:02:16.286Z,82.00
2022-08-05T08:04:48.220Z,81.80
2022-08-05T08:07:22.863Z,81.50
2022-08-05T08:09:54.896Z,81.50
2022-08-05T08:12:27.454Z,81.80
2022-08-05T08:15:09.714Z,81.60
2022-08-05T08:17:46.276Z,81.90
2022-08-05T08:20:43.221Z,81.90
2022-08-05T08:23:59.863Z,81.50
2022-08-05T08:25:58.996Z,81.60
2022-08-05T08:28:36.808Z,81.40
2022-08-05T08:31:15.121Z,81.60
2022-08-05T08:33:46.941Z,81.80
2022-08-05T08:36:38.967Z,81.70
2022-08-05T08:39:15.219Z,81.70
2022-08-05T08:41:52.230Z,82.10
2022-08-05T08:45:22.401Z,82.20
2022-08-05T08:47:47.048Z,81.50
2022-08-05T08:50:30.710Z,81.40
2022-08-05T08:53:12.008Z,81.40
2022-08-05T08:56:04.146Z,81.10
2022-08-05T08:58:43.098Z,80.50
2022-08-05T09:01:16.311Z,80.90
2022-08-05T09:03:47.442Z,80.60
2022-08-05T09:06:21.406Z,80.70
2022-08-05T09:08:52.283Z,80.60
2022-08-05T09:11:52.686Z,79.50
2022-08-05T09:14:58.769Z,78.90
2022-08-05T09:17:00.998Z,78.80
2022-08-05T09:19:36.710Z,79.10
2022-08-05T09:22:22.889Z,79.30
2022-08-05T09:25:00.546Z,79.40
2022-08-05T09:28:05.961Z,79.10
2022-08-05T09:30:23.785Z,79.40
2022-08-05T09:32:52.964Z,79.80
2022-08-05T09:35:26.435Z,79.80
2022-08-05T09:38:12.119Z,79.70
2022-08-05T09:40:52.721Z,80.00
2022-08-05T09:43:40.932Z,80.00
2022-08-05T09:46:27.941Z,79.70
2022-08-05T09:49:08.283Z,79.90
2022-08-05T09:51:49.525Z,80.30
2022-08-05T09:54:30.466Z,81.10
2022-08-05T09:57:01.258Z,80.50
2022-08-05T09:59:35.208Z,79.80
2022-08-05T10:02:05.348Z,79.90
2022-08-05T10:04:40.891Z,79.90
2022-08-05T10:07:20.281Z,79.90
2022-08-05T10:10:13.952Z,79.40
2022-08-05T10:12:49.667Z,79.10
2022-08-05T10:15:25.785Z,78.60
2022-08-05T10:18:08.665Z,78.60
2022-08-05T10:20:38.569Z,78.40
2022-08-05T10:23:08.952Z,78.10
2022-08-05T10:25:56.411Z,77.20
2022-08-05T10:28:29.314Z,77.50
2022-08-05T10:32:49.433Z,77.60
2022-08-05T10:33:54.043Z,78.10
2022-08-05T10:36:26.103Z,78.10
2022-08-05T10:39:01.575Z,77.50
2022-08-05T10:41:46.545Z,77.40
2022-08-05T10:44:56.307Z,77.10
2022-08-05T10:47:37.375Z,77.40
2022-08-05T10:50:36.625Z,77.60
2022-08-05T10:53:28.961Z,77.60
2022-08-05T10:56:21.240Z,77.30
2022-08-05T11:00:04.282Z,77.40
2022-08-05T11:02:34.665Z,77.70
2022-08-05T11:15:00.904Z,76.40
2022-08-05T11:18:07.391Z,76.70
2022-08-05T11:20:44.005Z,76.50
2022-08-05T11:24:03.405Z,75.70
2022-08-05T11:26:28.996Z,76.00
2022-08-05T11:29:11.532Z,75.60
2022-08-05T11:31:57.570Z,75.80
2022-08-05T11:34:38.734Z,75.40
2022-08-05T11:38:30.747Z,75.20
2022-08-05T11:40:02.753Z,75.30
2022-08-05T11:42:37.939Z,75.20
2022-08-05T11:45:14.275Z,74.20
2022-08-05T11:47:54.796Z,73.90
2022-08-05T11:50:23.013Z,74.10
2022-08-05T11:52:57.983Z,74.10
2022-08-05T11:55:32.105Z,74.10
2022-08-05T11:58:09.240Z,73.90
2022-08-05T12:00:41.157Z,73.60
2022-08-05T12:03:28.610Z,73.30
2022-08-05T12:06:01.788Z,73.50
2022-08-05T12:08:32.895Z,74.50
2022-08-05T12:11:05.989Z,74.80
2022-08-05T12:13:48.585Z,74.60
2022-08-05T12:16:19.974Z,74.50
2022-08-05T12:18:54.318Z,74.60
2022-08-05T12:21:26.639Z,73.70
2022-08-05T12:24:04.531Z,73.60
2022-08-05T12:26:34.066Z,73.30
2022-08-05T12:29:03.353Z,73.10
2022-08-05T12:31:46.046Z,72.80
2022-08-05T12:34:23.488Z,72.90
2022-08-05T12:36:55.809Z,72.90
2022-08-05T12:39:44.110Z,73.30
2022-08-05T12:42:19.871Z,73.40
2022-08-05T12:44:49.136Z,73.60
2022-08-05T12:47:37.287Z,73.70
2022-08-05T12:50:44.134Z,73.40
2022-08-05T12:53:36.835Z,73.10
2022-08-05T12:57:23.265Z,73.00
2022-08-05T13:02:00.489Z,73.10
2022-08-05T13:03:09.792Z,73.30
2022-08-05T13:15:51.208Z,71.20
2022-08-05T13:18:25.169Z,71.70
2022-08-05T13:20:55.194Z,71.40
2022-08-05T13:23:23.787Z,70.80
2022-08-05T13:25:59.468Z,70.50
2022-08-05T13:28:32.072Z,70.20
2022-08-05T13:31:03.390Z,70.50
2022-08-05T13:34:21.583Z,71.10
2022-08-05T13:36:30.395Z,71.00
2022-08-05T13:38:58.501Z,70.70
2022-08-05T13:41:37.524Z,70.50
2022-08-05T13:44:06.134Z,70.90
2022-08-05T13:46:37.669Z,71.00
2022-08-05T13:49:12.773Z,70.80
2022-08-05T13:51:45.860Z,70.50
2022-08-05T13:54:16.150Z,70.40
2022-08-05T13:56:50.889Z,70.60
2022-08-05T13:59:21.081Z,70.40
2022-08-05T14:01:58.383Z,70.00
2022-08-05T14:04:49.459Z,70.70
2022-08-05T14:07:56.392Z,71.00
2022-08-05T14:10:11.214Z,70.60
2022-08-05T14:12:39.368Z,70.00
2022-08-05T14:16:07.450Z,68.60
2022-08-05T14:18:01.307Z,65.60
2022-08-05T14:20:30.576Z,60.70
2022-08-05T14:22:58.492Z,58.60
2022-08-05T14:25:27.980Z,56.60
2022-08-05T14:27:56.311Z,54.60
2022-08-05T14:30:28.150Z,52.70
2022-08-05T14:32:56.705Z,53.40
2022-08-05T14:35:37.130Z,52.60
2022-08-05T14:38:31.808Z,52.00
2022-08-05T14:41:05.957Z,52.60
2022-08-05T14:43:59.355Z,52.60
2022-08-05T14:46:28.874Z,52.30
2022-08-05T14:49:06.249Z,53.20
2022-08-05T14:51:37.395Z,52.60
2022-08-05T14:54:26.450Z,51.50
2022-08-05T14:56:54.889Z,52.20
2022-08-05T14:59:22.987Z,53.00
2022-08-05T15:01:50.984Z,53.80
2022-08-05T15:04:20.574Z,53.30
2022-08-05T15:06:51.862Z,53.10
2022-08-05T15:09:50.662Z,52.30
2022-08-05T15:12:09.355Z,53.40
2022-08-05T15:14:48.444Z,52.80
2022-08-05T15:17:46.222Z,53.30
2022-08-05T15:20:15.663Z,53.40
2022-08-05T15:22:54.129Z,53.10
2022-08-05T15:25:52.906Z,54.30
2022-08-05T15:28:14.280Z,54.80
2022-08-05T15:30:43.434Z,54.60
2022-08-05T15:33:11.829Z,54.20
2022-08-05T15:35:44.961Z,55.00
2022-08-05T15:38:33.896Z,54.80
2022-08-05T15:41:21.853Z,54.70
2022-08-05T15:43:50.668Z,55.00
2022-08-05T15:46:20.499Z,55.10
2022-08-05T15:48:54.749Z,55.60
2022-08-05T15:52:04.463Z,57.00
2022-08-05T15:54:20.180Z,57.20
2022-08-05T15:57:02.585Z,58.00
2022-08-05T15:59:30.393Z,57.20
2022-08-05T16:01:59.446Z,57.10
2022-08-05T16:04:28.894Z,57.00
2022-08-05T16:06:56.934Z,57.10
2022-08-05T16:09:27.361Z,57.00
2022-08-05T16:11:56.429Z,56.40
2022-08-05T16:14:24.532Z,56.70
2022-08-05T16:16:52.368Z,55.70
2022-08-05T16:20:02.793Z,56.20
2022-08-05T16:22:10.822Z,56.90
2022-08-05T16:24:51.695Z,57.60
2022-08-05T16:27:32.284Z,57.90
2022-08-05T16:30:25.908Z,58.40
2022-08-05T16:32:55.634Z,59.00
2022-08-05T16:35:28.002Z,59.60
2022-08-05T16:38:02.248Z,59.70
2022-08-05T16:40:47.759Z,59.80
2022-08-05T16:43:23.456Z,59.80
2022-08-05T16:46:07.730Z,59.70
2022-08-05T16:48:40.582Z,59.70
2022-08-05T16:51:10.347Z,60.10
2022-08-05T16:54:06.167Z,60.10
2022-08-05T16:56:30.176Z,60.30
2022-08-05T16:58:58.239Z,60.70
2022-08-05T17:01:26.804Z,61.00
2022-08-05T17:03:54.721Z,61.10
2022-08-05T17:06:24.619Z,61.80
2022-08-05T17:08:54.419Z,62.40
2022-08-05T17:11:25.175Z,63.20
2022-08-05T17:14:05.486Z,64.10
2022-08-05T17:16:36.593Z,67.40
2022-08-05T17:19:07.759Z,69.20
2022-08-05T17:21:39.601Z,69.00
2022-08-05T17:24:19.834Z,67.70
2022-08-05T17:26:57.608Z,68.60
2022-08-05T17:29:33.059Z,67.60
2022-08-05T17:32:01.993Z,67.10
2022-08-05T17:34:32.254Z,67.20
2022-08-05T17:37:04.632Z,67.80
2022-08-05T17:39:55.114Z,67.40
2022-08-05T17:42:30.183Z,67.40
2022-08-05T17:45:09.878Z,67.20
2022-08-05T17:47:52.944Z,67.30
2022-08-05T17:50:27.631Z,67.00
2022-08-05T17:52:58.861Z,67.00
2022-08-05T17:55:37.295Z,67.10
2022-08-05T17:58:09.418Z,67.00
2022-08-05T18:00:44.423Z,67.40
2022-08-05T18:03:28.037Z,67.60
2022-08-05T18:06:04.896Z,67.80
2022-08-05T18:08:33.757Z,69.40
2022-08-05T18:11:03.184Z,70.30
2022-08-05T18:13:36.858Z,70.70
2022-08-05T18:16:14.290Z,70.10
2022-08-05T18:18:48.054Z,69.90
2022-08-05T18:21:19.917Z,69.70
2022-08-05T18:23:49.344Z,70.40
2022-08-05T18:26:21.981Z,70.60
2022-08-05T18:28:57.497Z,70.50
2022-08-05T18:31:32.957Z,70.70
2022-08-05T18:34:01.918Z,70.60
2022-08-05T18:36:29.945Z,70.70
2022-08-05T18:38:58.039Z,70.70
2022-08-05T18:41:59.612Z,71.10
2022-08-05T18:44:14.902Z,71.50
2022-08-05T18:47:03.726Z,72.00
2022-08-05T18:49:58.376Z,72.70
2022-08-05T18:52:35.645Z,72.80
2022-08-05T18:55:10.315Z,73.40
2022-08-05T18:57:50.333Z,73.80
2022-08-05T19:00:29.207Z,74.10
2022-08-05T19:03:03.810Z,74.40
2022-08-05T19:06:12.135Z,74.70
2022-08-05T19:08:21.861Z,74.80
2022-08-05T19:10:59.351Z,75.20
2022-08-05T19:13:27.240Z,75.40
2022-08-05T19:16:03.617Z,75.80
2022-08-05T19:18:33.246Z,75.90
2022-08-05T19:21:01.473Z,76.00
2022-08-05T19:24:05.142Z,76.00
2022-08-05T19:26:19.563Z,76.20
2022-08-05T19:28:47.408Z,76.20
2022-08-05T19:31:19.499Z,76.00
2022-08-05T19:33:56.909Z,77.10
2022-08-05T19:36:25.971Z,79.80
2022-08-05T19:39:00.555Z,81.30
2022-08-05T19:42:05.591Z,82.40
2022-08-05T19:44:20.441Z,83.50
2022-08-05T19:46:50.099Z,84.00
2022-08-05T19:49:19.664Z,85.00
2022-08-05T19:52:08.294Z,85.50
2022-08-05T19:54:36.807Z,85.90
2022-08-05T19:57:06.529Z,86.70
2022-08-05T19:59:56.583Z,85.30
2022-08-05T20:02:26.331Z,84.80
2022-08-05T20:04:58.923Z,84.30
2022-08-05T20:07:45.776Z,85.80
2022-08-05T20:10:16.335Z,85.50
2022-08-05T20:12:46.226Z,86.40
2022-08-05T20:15:48.757Z,86.50
2022-08-05T20:18:10.333Z,87.40
2022-08-05T20:20:58.152Z,88.30
2022-08-05T20:23:39.552Z,89.50
2022-08-05T20:26:17.279Z,89.80
2022-08-05T20:28:48.481Z,88.60
2022-08-05T20:31:16.972Z,88.60
2022-08-05T20:33:45.644Z,90.10
2022-08-05T20:36:17.999Z,89.40
2022-08-05T20:38:53.818Z,88.90
2022-08-05T20:41:26.980Z,89.10
2022-08-05T20:43:58.590Z,89.20
2022-08-05T20:46:28.425Z,89.50
2022-08-05T20:48:56.295Z,90.20
2022-08-05T20:51:25.959Z,91.20
2022-08-05T20:53:56.226Z,91.40
2022-08-05T20:56:28.892Z,91.30
2022-08-05T20:58:59.934Z,91.40
2022-08-05T21:01:39.451Z,91.80
2022-08-05T21:04:09.999Z,91.70
2022-08-05T21:06:45.249Z,91.80
2022-08-05T21:09:14.908Z,91.80
2022-08-05T21:12:09.192Z,91.80
2022-08-05T21:14:34.644Z,91.50
2022-08-05T21:17:05.175Z,91.00
2022-08-05T21:19:46.517Z,91.00
2022-08-05T21:22:21.857Z,91.10
2022-08-05T21:24:52.433Z,91.10
2022-08-05T21:27:25.232Z,91.10
2022-08-05T21:29:54.155Z,91.40
2022-08-05T21:32:24.563Z,91.30
2022-08-05T21:35:09.012Z,91.60
2022-08-05T21:37:52.996Z,92.00
2022-08-05T21:40:22.055Z,92.20
2022-08-05T21:42:52.619Z,92.60
2022-08-05T21:45:24.793Z,92.60
2022-08-05T21:47:55.957Z,92.40
2022-08-05T21:50:25.552Z,92.20
2022-08-05T21:52:58.734Z,92.30
2022-08-05T21:56:01.136Z,92.30
2022-08-05T21:58:20.101Z,92.10
2022-08-05T22:00:52.887Z,92.00
2022-08-05T22:03:49.045Z,91.70
2022-08-05T22:06:09.117Z,91.60
2022-08-05T22:08:42.444Z,92.00
2022-08-05T22:11:11.871Z,92.30
2022-08-05T22:14:19.585Z,92.60
2022-08-05T22:16:41.736Z,92.80
2022-08-05T22:20:03.119Z,93.20
2022-08-05T22:22:07.284Z,93.20
2022-08-05T22:24:55.794Z,93.40
2022-08-05T22:28:11.223Z,93.60
2022-08-05T22:30:32.212Z,94.10
2022-08-05T22:33:03.396Z,94.10
2022-08-05T22:35:48.566Z,94.10
2022-08-05T22:38:17.257Z,94.30
2022-08-05T22:40:54.948Z,94.50
2022-08-05T22:43:37.212Z,94.70
2022-08-05T22:46:13.756Z,94.80
2022-08-05T22:48:51.538Z,94.80
2022-08-05T22:51:23.136Z,94.90
2022-08-05T22:54:07.381Z,95.00
2022-08-05T22:56:36.569Z,95.10
2022-08-05T22:59:48.333Z,95.00
2022-08-05T23:02:04.931Z,95.00
2022-08-05T23:04:36.405Z,94.90
2022-08-05T23:07:07.022Z,94.90
2022-08-05T23:09:57.855Z,94.90
2022-08-05T23:12:24.998Z,95.00
2022-08-05T23:14:56.349Z,95.20
2022-08-05T23:17:32.668Z,94.80
2022-08-05T23:20:16.303Z,94.70
2022-08-05T23:22:47.634Z,94.60
2022-08-05T23:25:51.956Z,94.40
2022-08-05T23:28:07.678Z,94.70
2022-08-05T23:30:40.683Z,94.80
2022-08-05T23:33:16.189Z,94.80
2022-08-05T23:35:55.816Z,94.80
2022-08-05T23:38:25.916Z,94.70
2022-08-05T23:40:53.969Z,94.70
2022-08-05T23:43:25.456Z,94.90
2022-08-05T23:46:19.723Z,95.00
2022-08-05T23:49:00.490Z,95.00
2022-08-05T23:51:53.385Z,94.90
2022-08-05T23:54:26.019Z,94.50
2022-08-05T23:56:55.026Z,94.40
2022-08-05T23:59:37.280Z,94.50
